Time,TemperatureF,DewpointF,PressureIn,WindDirection,WindDirectionDegrees,WindSpeedMPH,WindSpeedGustMPH,Humidity,HourlyPrecipIn,Conditions,Clouds,dailyrainin,SoftwareType,DateUTC
2013-03-22 00:03:00,42.5,37.1,29.99,NW,304,0.0,0.0,81,0.00,,,0.00,Wunderground v.1.15,2013-03-22 07:03:00,
2013-03-22 00:11:00,42.5,37.1,29.99,NW,304,0.0,0.0,81,0.00,,,0.00,Wunderground v.1.15,2013-03-22 07:11:00,
2013-03-22 00:17:00,42.4,37.3,29.99,NW,304,0.0,0.0,82,0.00,,,0.00,Wunderground v.1.15,2013-03-22 07:17:00,
2013-03-22 00:23:00,42.2,37.1,29.99,NW,304,0.0,0.0,82,0.00,,,0.00,Wunderground v.1.15,2013-03-22 07:23:00,
2013-03-22 00:29:00,42.1,37.0,29.98,NW,304,0.0,-999.0,83,-99.99,,,0.00,weatherlink.com 1.10,2013-03-22 07:29:00,
2013-03-22 00:35:00,42.0,37.5,29.98,NW,304,0.0,0.0,84,0.00,,,0.00,Wunderground v.1.15,2013-03-22 07:35:00,
2013-03-22 00:43:00,41.8,37.3,29.98,NW,304,0.0,0.0,84,0.00,,,0.00,Wunderground v.1.15,2013-03-22 07:43:00,
2013-03-22 00:51:00,41.6,37.7,29.98,NW,304,0.0,0.0,86,0.00,,,0.00,Wunderground v.1.15,2013-03-22 07:51:00,
2013-03-22 00:57:00,41.4,37.5,29.98,NW,304,0.0,0.0,86,0.00,,,0.00,Wunderground v.1.15,2013-03-22 07:57:00,
2013-03-22 01:02:00,41.3,37.0,29.98,NW,304,0.0,-999.0,86,-99.99,,,0.00,weatherlink.com 1.10,2013-03-22 08:02:00,
2013-03-22 01:11:00,41.1,37.5,29.98,NW,304,0.0,0.0,87,0.00,,,0.00,Wunderground v.1.15,2013-03-22 08:11:00,
2013-03-22 01:17:00,41.0,37.7,29.99,NW,304,0.0,0.0,88,0.00,,,0.00,Wunderground v.1.15,2013-03-22 08:17:00,
2013-03-22 01:23:00,41.0,39.4,29.99,NW,304,0.0,0.0,94,0.00,,,0.00,Wunderground v.1.15,2013-03-22 08:23:00,
2013-03-22 01:31:00,40.9,38.2,29.99,NW,304,0.0,0.0,90,0.00,,,0.00,Wunderground v.1.15,2013-03-22 08:31:00,
2013-03-22 01:37:00,40.8,38.1,29.99,NW,304,0.0,0.0,90,0.00,,,0.00,Wunderground v.1.15,2013-03-22 08:37:00,
2013-03-22 01:43:00,40.8,38.1,29.99,NW,304,0.0,0.0,90,0.00,,,0.00,Wunderground v.1.15,2013-03-22 08:43:00,
2013-03-22 01:51:00,40.7,38.0,29.98,NW,304,0.0,-999.0,90,-99.99,,,0.00,weatherlink.com 1.10,2013-03-22 08:51:00,
2013-03-22 01:57:00,40.5,37.8,29.99,NW,304,0.0,0.0,90,0.00,,,0.00,Wunderground v.1.15,2013-03-22 08:57:00,
2013-03-22 02:03:00,40.5,38.1,29.99,NW,304,0.0,0.0,91,0.00,,,0.00,Wunderground v.1.15,2013-03-22 09:03:00,
2013-03-22 02:13:00,40.5,38.1,29.99,NW,304,0.0,0.0,91,0.00,,,0.00,Wunderground v.1.15,2013-03-22 09:13:00,
2013-03-22 02:21:00,40.4,38.0,29.99,NW,304,0.0,0.0,91,0.00,,,0.00,Wunderground v.1.15,2013-03-22 09:21:00,
2013-03-22 02:27:00,40.4,38.3,29.99,NW,304,0.0,0.0,92,0.00,,,0.00,Wunderground v.1.15,2013-03-22 09:27:00,
2013-03-22 02:33:00,40.3,37.9,29.99,NW,304,0.0,0.0,91,0.00,,,0.00,Wunderground v.1.15,2013-03-22 09:33:00,
2013-03-22 02:39:00,40.1,38.0,30.00,NW,304,0.0,-999.0,91,-99.99,,,0.00,weatherlink.com 1.10,2013-03-22 09:39:00,
2013-03-22 02:47:00,39.9,37.8,30.00,NW,304,0.0,0.0,92,0.00,,,0.00,Wunderground v.1.15,2013-03-22 09:47:00,
2013-03-22 02:53:00,39.8,37.7,30.00,NW,304,0.0,0.0,92,0.00,,,0.00,Wunderground v.1.15,2013-03-22 09:53:00,
2013-03-22 03:03:00,39.6,37.5,30.00,NW,304,0.0,0.0,92,0.00,,,0.00,Wunderground v.1.15,2013-03-22 10:03:00,
2013-03-22 03:11:00,39.4,37.0,30.00,NW,304,0.0,-999.0,92,-99.99,,,0.00,weatherlink.com 1.10,2013-03-22 10:11:00,
2013-03-22 03:17:00,39.2,37.1,29.99,NW,304,0.0,0.0,92,0.00,,,0.00,Wunderground v.1.15,2013-03-22 10:17:00,
2013-03-22 03:23:00,39.0,36.9,29.99,NW,304,0.0,0.0,92,0.00,,,0.00,Wunderground v.1.15,2013-03-22 10:23:00,
2013-03-22 03:31:00,38.8,36.9,29.99,NW,304,0.0,0.0,93,0.00,,,0.00,Wunderground v.1.15,2013-03-22 10:31:00,
2013-03-22 03:37:00,38.8,36.9,29.99,NW,304,0.0,0.0,93,0.00,,,0.00,Wunderground v.1.15,2013-03-22 10:37:00,
2013-03-22 03:43:00,38.7,36.9,29.98,NW,304,0.0,0.0,93,0.00,,,0.00,Wunderground v.1.15,2013-03-22 10:43:00,
2013-03-22 03:51:00,38.6,37.0,29.99,NW,304,0.0,0.0,94,0.00,,,0.00,Wunderground v.1.15,2013-03-22 10:51:00,
2013-03-22 03:59:00,38.2,36.0,29.98,NW,304,0.0,-999.0,93,-99.99,,,0.00,weatherlink.com 1.10,2013-03-22 10:59:00,
2013-03-22 04:05:00,38.0,36.4,29.99,NW,304,0.0,0.0,94,0.00,,,0.00,Wunderground v.1.15,2013-03-22 11:05:00,
2013-03-22 04:13:00,38.0,36.4,29.99,NW,304,0.0,0.0,94,0.00,,,0.00,Wunderground v.1.15,2013-03-22 11:13:00,
2013-03-22 04:21:00,37.9,36.3,29.99,NW,304,0.0,0.0,94,0.00,,,0.00,Wunderground v.1.15,2013-03-22 11:21:00,
2013-03-22 04:27:00,37.8,36.2,29.99,NW,304,0.0,0.0,94,0.00,,,0.00,Wunderground v.1.15,2013-03-22 11:27:00,
2013-03-22 04:33:00,38.2,36.9,29.99,NW,308,1.0,4.0,95,0.00,,,0.00,Wunderground v.1.15,2013-03-22 11:33:00,
2013-03-22 04:43:00,39.7,38.7,29.99,NW,317,1.0,1.0,96,0.00,,,0.00,Wunderground v.1.15,2013-03-22 11:43:00,
2013-03-22 04:49:00,39.6,38.0,30.00,NW,317,0.0,-999.0,94,-99.99,,,0.00,weatherlink.com 1.10,2013-03-22 11:49:00,
2013-03-22 04:55:00,39.2,37.3,30.00,NW,317,0.0,0.0,93,0.00,,,0.00,Wunderground v.1.15,2013-03-22 11:55:00,
2013-03-22 05:01:00,38.8,36.9,30.00,NW,317,0.0,0.0,93,0.00,,,0.00,Wunderground v.1.15,2013-03-22 12:01:00,
2013-03-22 05:07:00,38.4,36.6,30.00,NW,317,0.0,0.0,93,0.00,,,0.00,Wunderground v.1.15,2013-03-22 12:07:00,
2013-03-22 05:13:00,38.1,36.3,30.00,NW,317,0.0,0.0,93,0.00,,,0.00,Wunderground v.1.15,2013-03-22 12:13:00,
2013-03-22 05:20:00,37.9,36.0,30.00,NW,317,0.0,-999.0,94,-99.99,,,0.00,weatherlink.com 1.10,2013-03-22 12:20:00,
2013-03-22 05:27:00,37.8,36.0,30.00,NW,317,0.0,0.0,93,0.00,,,0.00,Wunderground v.1.15,2013-03-22 12:27:00,
2013-03-22 05:33:00,37.5,35.7,30.00,NW,317,0.0,0.0,93,0.00,,,0.00,Wunderground v.1.15,2013-03-22 12:33:00,
2013-03-22 05:39:00,37.4,36.0,30.00,NW,317,0.0,-999.0,94,-99.99,,,0.00,weatherlink.com 1.10,2013-03-22 12:39:00,
2013-03-22 05:47:00,37.1,35.3,30.00,NW,317,0.0,0.0,93,0.00,,,0.00,Wunderground v.1.15,2013-03-22 12:47:00,
2013-03-22 05:53:00,37.0,35.0,30.00,NW,317,0.0,-999.0,93,-99.99,,,0.00,weatherlink.com 1.10,2013-03-22 12:53:00,
2013-03-22 06:03:00,36.5,34.7,30.00,NW,317,0.0,0.0,93,0.00,,,0.00,Wunderground v.1.15,2013-03-22 13:03:00,
2013-03-22 06:09:00,36.2,34.0,30.00,NW,317,0.0,-999.0,93,-99.99,,,0.00,weatherlink.com 1.10,2013-03-22 13:09:00,
2013-03-22 06:17:00,35.8,34.0,30.00,NW,317,0.0,0.0,93,0.00,,,0.00,Wunderground v.1.15,2013-03-22 13:17:00,
2013-03-22 06:23:00,35.7,33.9,30.01,NW,317,0.0,0.0,93,0.00,,,0.00,Wunderground v.1.15,2013-03-22 13:23:00,
2013-03-22 06:33:00,35.5,33.7,30.01,NW,317,0.0,0.0,93,0.00,,,0.00,Wunderground v.1.15,2013-03-22 13:33:00,
2013-03-22 06:42:00,35.2,33.0,30.01,NW,317,0.0,-999.0,92,-99.99,,,0.00,weatherlink.com 1.10,2013-03-22 13:42:00,
2013-03-22 06:47:00,35.0,33.2,30.01,NW,317,0.0,0.0,93,0.00,,,0.00,Wunderground v.1.15,2013-03-22 13:47:00,
2013-03-22 06:53:00,34.9,33.1,30.01,NW,317,0.0,0.0,93,0.00,,,0.00,Wunderground v.1.15,2013-03-22 13:53:00,
2013-03-22 06:59:00,34.7,33.0,30.01,NW,317,0.0,-999.0,93,-99.99,,,0.00,weatherlink.com 1.10,2013-03-22 13:59:00,
2013-03-22 07:05:00,34.5,32.7,30.01,NW,317,0.0,0.0,93,0.00,,,0.00,Wunderground v.1.15,2013-03-22 14:05:00,
2013-03-22 07:11:00,34.2,32.1,30.01,NW,317,0.0,0.0,92,0.00,,,0.00,Wunderground v.1.15,2013-03-22 14:11:00,
2013-03-22 07:19:00,34.0,32.2,30.02,NW,317,0.0,0.0,93,0.00,,,0.00,Wunderground v.1.15,2013-03-22 14:19:00,
2013-03-22 07:25:00,33.9,32.1,30.02,NW,317,0.0,0.0,93,0.00,,,0.00,Wunderground v.1.15,2013-03-22 14:25:00,
2013-03-22 07:33:00,33.8,32.0,30.02,NW,317,0.0,0.0,93,0.00,,,0.00,Wunderground v.1.15,2013-03-22 14:33:00,
2013-03-22 07:43:00,33.9,32.4,30.02,NW,317,0.0,0.0,94,0.00,,,0.00,Wunderground v.1.15,2013-03-22 14:43:00,
2013-03-22 07:53:00,34.1,32.6,30.03,NW,308,0.0,1.0,94,0.00,,,0.00,Wunderground v.1.15,2013-03-22 14:53:00,
2013-03-22 08:03:00,35.5,33.0,30.03,WNW,290,0.0,-999.0,90,-99.99,,,0.00,weatherlink.com 1.10,2013-03-22 15:03:00,
2013-03-22 08:11:00,37.7,33.0,30.03,WNW,301,2.0,5.0,83,0.00,,,0.00,Wunderground v.1.15,2013-03-22 15:11:00,
2013-03-22 08:17:00,39.6,32.7,30.03,WNW,299,2.0,3.0,76,0.00,,,0.00,Wunderground v.1.15,2013-03-22 15:17:00,
2013-03-22 08:23:00,41.0,33.3,30.04,West,275,2.0,2.0,74,0.00,,,0.01,Wunderground v.1.15,2013-03-22 15:23:00,
2013-03-22 08:31:00,42.4,33.3,30.04,NW,317,3.0,3.0,70,0.00,,,0.01,Wunderground v.1.15,2013-03-22 15:31:00,
2013-03-22 08:37:00,43.2,33.3,30.04,NW,313,3.0,3.0,68,0.00,,,0.01,Wunderground v.1.15,2013-03-22 15:37:00,
2013-03-22 08:43:00,43.8,33.2,30.04,NW,311,2.0,2.0,66,0.00,,,0.01,Wunderground v.1.15,2013-03-22 15:43:00,
2013-03-22 08:51:00,44.9,32.7,30.04,NW,315,3.0,4.0,62,0.00,,,0.01,Wunderground v.1.15,2013-03-22 15:51:00,
2013-03-22 08:57:00,45.4,32.7,30.04,WNW,288,2.0,4.0,61,0.00,,,0.01,Wunderground v.1.15,2013-03-22 15:57:00,
2013-03-22 09:03:00,45.9,31.5,30.04,WNW,298,2.0,2.0,57,0.00,,,0.01,Wunderground v.1.15,2013-03-22 16:03:00,
2013-03-22 09:11:00,46.8,31.5,30.04,WNW,302,3.0,4.0,55,0.00,,,0.01,Wunderground v.1.15,2013-03-22 16:11:00,
2013-03-22 09:17:00,47.6,30.8,30.04,WNW,296,3.0,5.0,52,0.00,,,0.01,Wunderground v.1.15,2013-03-22 16:17:00,
2013-03-22 09:23:00,48.0,31.0,30.04,West,281,1.0,-999.0,52,-99.99,,,0.01,weatherlink.com 1.10,2013-03-22 16:23:00,
2013-03-22 09:33:00,48.7,29.4,30.05,NW,322,4.0,4.0,47,0.00,,,0.01,Wunderground v.1.15,2013-03-22 16:33:00,
2013-03-22 09:40:00,49.2,28.0,30.05,NNW,327,5.0,-999.0,44,-99.99,,,0.01,weatherlink.com 1.10,2013-03-22 16:40:00,
2013-03-22 09:47:00,49.9,28.3,30.05,NW,323,5.0,6.0,43,0.00,,,0.01,Wunderground v.1.15,2013-03-22 16:47:00,
2013-03-22 09:53:00,50.3,28.1,30.06,NW,325,5.0,5.0,42,0.00,,,0.01,Wunderground v.1.15,2013-03-22 16:53:00,
2013-03-22 10:03:00,51.1,29.4,30.05,WNW,293,4.0,10.0,43,0.00,,,0.01,Wunderground v.1.15,2013-03-22 17:03:00,
2013-03-22 10:11:00,51.7,28.7,30.05,NW,304,5.0,10.0,41,0.00,,,0.01,Wunderground v.1.15,2013-03-22 17:11:00,
2013-03-22 10:17:00,51.8,27.0,30.05,NW,309,7.0,15.0,38,0.00,,,0.01,Wunderground v.1.15,2013-03-22 17:17:00,
2013-03-22 10:23:00,52.0,28.4,30.05,NW,326,7.0,7.0,40,0.00,,,0.01,Wunderground v.1.15,2013-03-22 17:23:00,
2013-03-22 10:29:00,52.6,27.0,30.05,WNW,298,7.0,-999.0,38,-99.99,,,0.01,weatherlink.com 1.10,2013-03-22 17:29:00,
2013-03-22 10:35:00,53.1,28.1,30.06,NW,323,5.0,9.0,38,0.00,,,0.01,Wunderground v.1.15,2013-03-22 17:35:00,
2013-03-22 10:41:00,53.5,27.8,30.06,WNW,297,5.0,10.0,37,0.00,,,0.01,Wunderground v.1.15,2013-03-22 17:41:00,
2013-03-22 10:47:00,53.7,28.0,30.06,NW,310,6.0,10.0,37,0.00,,,0.01,Wunderground v.1.15,2013-03-22 17:47:00,
2013-03-22 10:53:00,53.9,27.5,30.06,NW,307,7.0,10.0,36,0.00,,,0.01,Wunderground v.1.15,2013-03-22 17:53:00,
2013-03-22 11:00:00,54.1,26.0,30.05,NNW,342,6.0,-999.0,34,-99.99,,,0.01,weatherlink.com 1.10,2013-03-22 18:00:00,
2013-03-22 11:07:00,54.7,27.6,30.05,NW,326,6.0,7.0,35,0.00,,,0.01,Wunderground v.1.15,2013-03-22 18:07:00,
2013-03-22 11:13:00,55.0,25.6,30.05,WNW,300,7.0,13.0,32,0.00,,,0.01,Wunderground v.1.15,2013-03-22 18:13:00,
2013-03-22 11:21:00,55.1,27.2,30.05,WNW,300,8.0,8.0,34,0.00,,,0.01,Wunderground v.1.15,2013-03-22 18:21:00,
2013-03-22 11:27:00,55.3,28.1,30.05,NW,308,8.0,12.0,35,0.00,,,0.01,Wunderground v.1.15,2013-03-22 18:27:00,
2013-03-22 11:32:00,55.5,28.0,30.05,West,281,3.0,-999.0,35,-99.99,,,0.01,weatherlink.com 1.10,2013-03-22 18:32:00,
2013-03-22 11:41:00,56.1,29.5,30.05,West,271,7.0,7.0,36,0.00,,,0.01,Wunderground v.1.15,2013-03-22 18:41:00,
2013-03-22 11:47:00,56.5,30.5,30.05,NW,308,7.0,8.0,37,0.00,,,0.01,Wunderground v.1.15,2013-03-22 18:47:00,
2013-03-22 11:53:00,57.0,29.6,30.05,NW,311,7.0,8.0,35,0.00,,,0.01,Wunderground v.1.15,2013-03-22 18:53:00,
2013-03-22 12:01:00,57.1,28.2,30.05,NW,323,8.0,12.0,33,0.00,,,0.01,Wunderground v.1.15,2013-03-22 19:01:00,
2013-03-22 12:07:00,57.0,28.9,30.05,NW,306,9.0,12.0,34,0.00,,,0.01,Wunderground v.1.15,2013-03-22 19:07:00,
2013-03-22 12:13:00,57.4,28.5,30.05,NNW,347,8.0,8.0,33,0.00,,,0.01,Wunderground v.1.15,2013-03-22 19:13:00,
2013-03-22 12:21:00,57.4,27.7,30.05,WNW,298,9.0,10.0,32,0.00,,,0.01,Wunderground v.1.15,2013-03-22 19:21:00,
2013-03-22 12:27:00,58.2,29.9,30.05,NW,311,7.0,10.0,34,0.00,,,0.01,Wunderground v.1.15,2013-03-22 19:27:00,
2013-03-22 12:33:00,58.8,27.4,30.06,NW,310,6.0,15.0,30,0.00,,,0.01,Wunderground v.1.15,2013-03-22 19:33:00,
2013-03-22 12:39:00,58.9,28.0,30.06,NW,311,12.0,-999.0,31,-99.99,,,0.01,weatherlink.com 1.10,2013-03-22 19:39:00,
2013-03-22 12:47:00,58.4,24.5,30.06,WNW,289,8.0,9.0,27,0.00,,,0.01,Wunderground v.1.15,2013-03-22 19:47:00,
2013-03-22 12:53:00,58.6,26.4,30.05,NW,304,8.0,8.0,29,0.00,,,0.01,Wunderground v.1.15,2013-03-22 19:53:00,
2013-03-22 13:03:00,59.4,24.5,30.05,NW,311,7.0,9.0,26,0.00,,,0.01,Wunderground v.1.15,2013-03-22 20:03:00,
2013-03-22 13:10:00,58.9,25.0,30.05,WNW,300,8.0,-999.0,27,-99.99,,,0.01,weatherlink.com 1.10,2013-03-22 20:10:00,
2013-03-22 13:17:00,59.1,26.0,30.05,NW,310,9.0,13.0,28,0.00,,,0.01,Wunderground v.1.15,2013-03-22 20:17:00,
2013-03-22 13:23:00,59.2,25.2,30.05,NW,324,9.0,9.0,27,0.00,,,0.01,Wunderground v.1.15,2013-03-22 20:23:00,
2013-03-22 13:31:00,58.9,24.9,30.05,NW,324,9.0,17.0,27,0.00,,,0.01,Wunderground v.1.15,2013-03-22 20:31:00,
2013-03-22 13:37:00,59.3,25.3,30.05,NNW,335,9.0,9.0,27,0.00,,,0.01,Wunderground v.1.15,2013-03-22 20:37:00,
2013-03-22 13:42:00,59.1,25.0,30.05,WNW,300,10.0,-999.0,27,-99.99,,,0.01,weatherlink.com 1.10,2013-03-22 20:42:00,
2013-03-22 13:51:00,59.4,27.1,30.04,WNW,302,8.0,14.0,29,0.00,,,0.01,Wunderground v.1.15,2013-03-22 20:51:00,
2013-03-22 13:57:00,59.7,25.6,30.05,WNW,296,8.0,17.0,27,0.00,,,0.01,Wunderground v.1.15,2013-03-22 20:57:00,
2013-03-22 14:03:00,59.6,26.4,30.04,NW,310,9.0,14.0,28,0.00,,,0.01,Wunderground v.1.15,2013-03-22 21:03:00,
2013-03-22 14:13:00,59.8,26.6,30.04,NW,312,9.0,11.0,28,0.00,,,0.01,Wunderground v.1.15,2013-03-22 21:13:00,
2013-03-22 14:21:00,60.3,27.9,30.03,NW,321,8.0,11.0,29,0.00,,,0.01,Wunderground v.1.15,2013-03-22 21:21:00,
2013-03-22 14:27:00,60.9,27.5,30.03,WNW,284,7.0,10.0,28,0.00,,,0.01,Wunderground v.1.15,2013-03-22 21:27:00,
2013-03-22 14:33:00,60.8,28.3,30.03,NW,323,8.0,8.0,29,0.00,,,0.01,Wunderground v.1.15,2013-03-22 21:33:00,
2013-03-22 14:41:00,60.7,27.4,30.03,NW,311,7.0,14.0,28,0.00,,,0.01,Wunderground v.1.15,2013-03-22 21:41:00,
2013-03-22 14:47:00,60.5,27.2,30.02,West,280,8.0,8.0,28,0.00,,,0.01,Wunderground v.1.15,2013-03-22 21:47:00,
2013-03-22 14:53:00,60.7,26.5,30.02,WNW,302,8.0,9.0,27,0.00,,,0.01,Wunderground v.1.15,2013-03-22 21:53:00,
2013-03-22 15:03:00,60.9,27.5,30.02,NNW,329,8.0,9.0,28,0.00,,,0.01,Wunderground v.1.15,2013-03-22 22:03:00,
2013-03-22 15:13:00,61.5,28.1,30.02,NW,311,6.0,8.0,28,0.00,,,0.01,Wunderground v.1.15,2013-03-22 22:13:00,
2013-03-22 15:19:00,61.2,28.0,30.01,NNE,12,2.0,-999.0,28,-99.99,,,0.01,weatherlink.com 1.10,2013-03-22 22:19:00,
2013-03-22 15:25:00,61.1,27.7,30.01,WNW,302,9.0,10.0,28,0.00,,,0.01,Wunderground v.1.15,2013-03-22 22:25:00,
2013-03-22 15:31:00,61.1,27.7,30.01,NNW,346,8.0,12.0,28,0.00,,,0.01,Wunderground v.1.15,2013-03-22 22:31:00,
2013-03-22 15:36:00,61.3,29.0,30.02,WNW,292,7.0,-999.0,29,-99.99,,,0.01,weatherlink.com 1.10,2013-03-22 22:36:00,
2013-03-22 15:43:00,61.1,28.6,30.02,NNW,330,8.0,8.0,29,0.00,,,0.01,Wunderground v.1.15,2013-03-22 22:43:00,
2013-03-22 15:52:00,61.2,29.0,30.02,NW,316,7.0,-999.0,29,-99.99,,,0.01,weatherlink.com 1.10,2013-03-22 22:52:00,
2013-03-22 15:57:00,61.4,28.0,30.02,West,266,5.0,6.0,28,0.00,,,0.01,Wunderground v.1.15,2013-03-22 22:57:00,
2013-03-22 16:05:00,62.0,29.3,30.02,WNW,286,4.0,8.0,29,0.00,,,0.01,Wunderground v.1.15,2013-03-22 23:05:00,
2013-03-22 16:11:00,62.1,28.6,30.02,WNW,301,4.0,8.0,28,0.00,,,0.01,Wunderground v.1.15,2013-03-22 23:11:00,
2013-03-22 16:17:00,62.3,29.6,30.02,WNW,291,5.0,7.0,29,0.00,,,0.01,Wunderground v.1.15,2013-03-22 23:17:00,
2013-03-22 16:22:00,61.9,27.0,30.02,NW,304,4.0,-999.0,27,-99.99,,,0.01,weatherlink.com 1.10,2013-03-22 23:22:00,
2013-03-22 16:33:00,61.1,27.7,30.02,West,281,7.0,7.0,28,0.00,,,0.01,Wunderground v.1.15,2013-03-22 23:33:00,
2013-03-22 16:43:00,60.5,26.3,30.02,WNW,302,8.0,9.0,27,0.00,,,0.01,Wunderground v.1.15,2013-03-22 23:43:00,
2013-03-22 16:51:00,60.6,27.3,30.02,NW,317,7.0,13.0,28,0.00,,,0.01,Wunderground v.1.15,2013-03-22 23:51:00,
2013-03-22 16:57:00,60.5,26.3,30.02,NW,304,7.0,7.0,27,0.00,,,0.01,Wunderground v.1.15,2013-03-22 23:57:00,
2013-03-22 17:03:00,60.5,27.2,30.02,WNW,300,7.0,7.0,28,0.00,,,0.01,Wunderground v.1.15,2013-03-23 00:03:00,
2013-03-22 17:08:00,60.6,26.0,30.02,WNW,303,6.0,-999.0,27,-99.99,,,0.01,weatherlink.com 1.10,2013-03-23 00:08:00,
2013-03-22 17:17:00,60.4,27.1,30.02,WNW,297,6.0,6.0,28,0.00,,,0.01,Wunderground v.1.15,2013-03-23 00:17:00,
2013-03-22 17:23:00,60.1,26.9,30.02,NW,304,6.0,6.0,28,0.00,,,0.01,Wunderground v.1.15,2013-03-23 00:23:00,
2013-03-22 17:35:00,59.5,27.2,30.02,West,281,6.0,6.0,29,0.00,,,0.01,Wunderground v.1.15,2013-03-23 00:35:00,
2013-03-22 17:41:00,59.2,26.9,30.02,NW,322,6.0,15.0,29,0.00,,,0.01,Wunderground v.1.15,2013-03-23 00:41:00,
2013-03-22 17:47:00,58.7,26.5,30.02,WNW,296,7.0,7.0,29,0.00,,,0.01,Wunderground v.1.15,2013-03-23 00:47:00,
2013-03-22 17:53:00,58.4,26.2,30.02,NW,309,6.0,6.0,29,0.00,,,0.01,Wunderground v.1.15,2013-03-23 00:53:00,
2013-03-22 18:01:00,58.0,26.7,30.02,NNW,327,5.0,5.0,30,0.00,,,0.01,Wunderground v.1.15,2013-03-23 01:01:00,
2013-03-22 18:07:00,57.8,26.5,30.02,WNW,292,5.0,5.0,30,0.00,,,0.01,Wunderground v.1.15,2013-03-23 01:07:00,
2013-03-22 18:13:00,57.5,26.3,30.02,NW,307,5.0,5.0,30,0.00,,,0.01,Wunderground v.1.15,2013-03-23 01:13:00,
2013-03-22 18:23:00,57.1,27.5,30.02,NW,319,5.0,8.0,32,0.00,,,0.01,Wunderground v.1.15,2013-03-23 01:23:00,
2013-03-22 18:31:00,56.8,27.2,30.02,NW,309,4.0,4.0,32,0.00,,,0.01,Wunderground v.1.15,2013-03-23 01:31:00,
2013-03-22 18:37:00,56.6,27.8,30.02,WNW,296,4.0,5.0,33,0.00,,,0.01,Wunderground v.1.15,2013-03-23 01:37:00,
2013-03-22 18:43:00,56.4,27.6,30.02,West,280,4.0,4.0,33,0.00,,,0.01,Wunderground v.1.15,2013-03-23 01:43:00,
2013-03-22 18:53:00,55.9,27.9,30.03,NW,307,3.0,4.0,34,0.00,,,0.01,Wunderground v.1.15,2013-03-23 01:53:00,
2013-03-22 19:01:00,55.5,28.3,30.02,NW,317,3.0,6.0,35,0.00,,,0.01,Wunderground v.1.15,2013-03-23 02:01:00,
2013-03-22 19:07:00,55.2,28.0,30.03,WNW,289,2.0,6.0,35,0.00,,,0.01,Wunderground v.1.15,2013-03-23 02:07:00,
2013-03-22 19:13:00,54.7,28.2,30.03,West,281,2.0,7.0,36,0.00,,,0.01,Wunderground v.1.15,2013-03-23 02:13:00,
2013-03-22 19:21:00,54.2,28.5,30.03,WNW,303,3.0,3.0,37,0.00,,,0.01,Wunderground v.1.15,2013-03-23 02:21:00,
2013-03-22 19:31:00,53.7,28.7,30.03,NW,308,2.0,2.0,38,0.00,,,0.01,Wunderground v.1.15,2013-03-23 02:31:00,
2013-03-22 19:37:00,53.3,28.3,30.04,NW,307,2.0,3.0,38,0.00,,,0.01,Wunderground v.1.15,2013-03-23 02:37:00,
2013-03-22 19:43:00,52.9,28.6,30.03,NNW,344,2.0,3.0,39,0.00,,,0.01,Wunderground v.1.15,2013-03-23 02:43:00,
2013-03-22 19:53:00,52.3,28.1,30.03,NW,320,2.0,2.0,39,0.00,,,0.01,Wunderground v.1.15,2013-03-23 02:53:00,
2013-03-22 20:01:00,52.0,28.4,30.03,NW,325,1.0,1.0,40,0.00,,,0.01,Wunderground v.1.15,2013-03-23 03:01:00,
2013-03-22 20:07:00,51.8,28.8,30.03,NW,304,1.0,2.0,41,0.00,,,0.01,Wunderground v.1.15,2013-03-23 03:07:00,
2013-03-22 20:13:00,51.6,28.0,30.04,NW,319,2.0,2.0,40,0.00,,,0.01,Wunderground v.1.15,2013-03-23 03:13:00,
2013-03-22 20:21:00,51.6,27.4,30.03,NW,324,2.0,2.0,39,0.00,,,0.01,Wunderground v.1.15,2013-03-23 03:21:00,
2013-03-22 20:26:00,51.7,27.0,30.03,NW,312,0.0,-999.0,39,-99.99,,,0.01,weatherlink.com 1.10,2013-03-23 03:26:00,
2013-03-22 20:33:00,51.9,27.7,30.03,NNW,333,2.0,2.0,39,0.00,,,0.01,Wunderground v.1.15,2013-03-23 03:33:00,
2013-03-22 20:40:00,51.8,27.0,30.04,NW,324,0.0,-999.0,39,-99.99,,,0.01,weatherlink.com 1.10,2013-03-23 03:40:00,
2013-03-22 20:47:00,51.7,27.5,30.04,NNW,344,1.0,4.0,39,0.00,,,0.01,Wunderground v.1.15,2013-03-23 03:47:00,
2013-03-22 20:53:00,51.8,27.6,30.04,NNW,340,1.0,1.0,39,0.00,,,0.01,Wunderground v.1.15,2013-03-23 03:53:00,
2013-03-22 21:03:00,51.9,28.3,30.04,NW,315,1.0,1.0,40,0.00,,,0.01,Wunderground v.1.15,2013-03-23 04:03:00,
2013-03-22 21:07:00,51.8,27.6,30.05,NW,315,0.0,1.0,39,0.00,,,0.01,Wunderground v.1.15,2013-03-23 04:07:00,
2013-03-22 21:12:00,51.9,27.0,30.05,NW,319,0.0,-999.0,39,-99.99,,,0.01,weatherlink.com 1.10,2013-03-23 04:12:00,
2013-03-22 21:21:00,51.4,29.1,30.05,NW,319,0.0,0.0,42,0.00,,,0.01,Wunderground v.1.15,2013-03-23 04:21:00,
2013-03-22 21:26:00,50.9,29.0,30.05,NW,319,0.0,-999.0,43,-99.99,,,0.01,weatherlink.com 1.10,2013-03-23 04:26:00,
2013-03-22 21:33:00,50.2,30.2,30.05,NW,319,0.0,0.0,46,0.00,,,0.01,Wunderground v.1.15,2013-03-23 04:33:00,
2013-03-22 21:35:00,49.9,30.5,30.05,NW,319,0.0,0.0,47,0.00,,,0.01,Wunderground v.1.15,2013-03-23 04:35:00,
2013-03-22 21:41:00,49.1,30.2,30.05,NW,319,0.0,0.0,48,0.00,,,0.01,Wunderground v.1.15,2013-03-23 04:41:00,
2013-03-22 21:47:00,48.3,29.5,30.05,NW,319,0.0,0.0,48,0.00,,,0.01,Wunderground v.1.15,2013-03-23 04:47:00,
2013-03-22 21:53:00,47.7,29.5,30.06,NW,319,0.0,0.0,49,0.00,,,0.01,Wunderground v.1.15,2013-03-23 04:53:00,
2013-03-22 22:01:00,47.2,30.0,30.06,NW,319,0.0,0.0,51,0.00,,,0.01,Wunderground v.1.15,2013-03-23 05:01:00,
2013-03-22 22:07:00,46.6,30.4,30.06,NW,319,0.0,0.0,53,0.00,,,0.01,Wunderground v.1.15,2013-03-23 05:07:00,
2013-03-22 22:13:00,45.9,30.6,30.05,NW,319,0.0,0.0,55,0.00,,,0.01,Wunderground v.1.15,2013-03-23 05:13:00,
2013-03-22 22:19:00,45.3,31.4,30.05,NW,319,0.0,0.0,58,0.00,,,0.01,Wunderground v.1.15,2013-03-23 05:19:00,
2013-03-22 22:25:00,44.7,31.2,30.05,NW,319,0.0,0.0,59,0.00,,,0.01,Wunderground v.1.15,2013-03-23 05:25:00,
2013-03-22 22:33:00,44.0,31.4,30.05,NW,319,0.0,0.0,61,0.00,,,0.01,Wunderground v.1.15,2013-03-23 05:33:00,
2013-03-22 22:41:00,43.3,31.5,30.05,NW,319,0.0,0.0,63,0.00,,,0.01,Wunderground v.1.15,2013-03-23 05:41:00,
2013-03-22 22:47:00,42.9,31.2,30.05,NW,319,0.0,0.0,63,0.00,,,0.01,Wunderground v.1.15,2013-03-23 05:47:00,
2013-03-22 22:53:00,42.5,31.2,30.06,NW,319,0.0,0.0,64,0.00,,,0.01,Wunderground v.1.15,2013-03-23 05:53:00,
2013-03-22 22:59:00,42.0,31.0,30.06,NW,319,0.0,-999.0,65,-99.99,,,0.01,weatherlink.com 1.10,2013-03-23 05:59:00,
2013-03-22 23:05:00,41.8,31.3,30.06,NW,319,0.0,1.0,66,0.00,,,0.01,Wunderground v.1.15,2013-03-23 06:05:00,
2013-03-22 23:11:00,41.5,31.7,30.06,NW,319,0.0,0.0,68,0.00,,,0.01,Wunderground v.1.15,2013-03-23 06:11:00,
2013-03-22 23:17:00,41.1,31.3,30.06,NW,319,0.0,0.0,68,0.00,,,0.01,Wunderground v.1.15,2013-03-23 06:17:00,
2013-03-22 23:23:00,40.9,31.5,30.06,NW,319,0.0,0.0,69,0.00,,,0.01,Wunderground v.1.15,2013-03-23 06:23:00,
2013-03-22 23:29:00,40.7,31.0,30.06,NW,319,0.0,-999.0,69,-99.99,,,0.01,weatherlink.com 1.10,2013-03-23 06:29:00,
2013-03-22 23:35:00,40.5,31.5,30.06,NW,319,0.0,0.0,70,0.00,,,0.01,Wunderground v.1.15,2013-03-23 06:35:00,
2013-03-22 23:41:00,40.2,31.5,30.05,NW,319,0.0,0.0,71,0.00,,,0.01,Wunderground v.1.15,2013-03-23 06:41:00,
2013-03-22 23:47:00,39.9,31.6,30.06,NW,319,0.0,0.0,72,0.00,,,0.01,Wunderground v.1.15,2013-03-23 06:47:00,
2013-03-22 23:53:00,39.6,31.7,30.05,NW,319,0.0,0.0,73,0.00,,,0.01,Wunderground v.1.15,2013-03-23 06:53:00,